< Typhoon 198706 1987 Season Typhoon 198708 >
Typhoon 198707 (WYNNE)
General InformationTrack Information on Google MapsDetailed Wind InformationList of All Images || Disaster Info.ResourceGoogle EarthGE AnimationAtom FeedGeoJSON
Detalied Best Track (Time Zone = UTC)
Year Month Day Hour Lat. Long. Pressure (hPa) Wind (kt) Class Image Chart
1987 7 21 00 5.0 178.0 1006 0 2 Image Chart
1987 7 21 06 6.0 176.0 1006 0 2 Image Chart
1987 7 21 12 6.9 174.4 1006 0 2 Image Chart
1987 7 21 18 7.8 172.7 1006 0 2 Image Chart
1987 7 22 00 8.6 170.9 1004 0 2 Image Chart
1987 7 22 06 9.3 169.2 1002 40 3 Image Chart
1987 7 22 12 9.8 167.4 1002 40 3 Image Chart
1987 7 22 18 10.1 165.4 1000 40 3 Image Chart
1987 7 23 00 10.3 163.8 998 40 3 Image Chart
1987 7 23 06 10.5 162.1 996 40 3 Image Chart
1987 7 23 12 10.9 160.5 994 50 4 Image Chart
1987 7 23 18 11.4 159.0 990 50 4 Image Chart
1987 7 24 00 12.1 157.6 985 60 4 Image Chart
1987 7 24 06 13.0 156.2 975 65 5 Image Chart
1987 7 24 12 13.6 154.5 965 75 5 Image Chart
1987 7 24 18 14.3 152.9 950 80 5 Image Chart
1987 7 25 00 15.0 151.3 935 80 5 Image Chart
1987 7 25 06 15.7 149.7 925 95 5 Image Chart
1987 7 25 12 16.4 148.3 925 95 5 Image Chart
1987 7 25 18 17.2 146.6 925 90 5 Image Chart
1987 7 26 00 17.8 145.0 920 100 5 Image Chart
1987 7 26 06 18.4 143.6 920 100 5 Image Chart
1987 7 26 12 19.0 142.1 920 100 5 Image Chart
1987 7 26 18 19.5 140.6 920 100 5 Image Chart
1987 7 27 00 20.1 139.2 925 100 5 Image Chart
1987 7 27 06 20.7 138.1 925 95 5 Image Chart
1987 7 27 12 21.4 136.9 930 95 5 Image Chart
1987 7 27 18 22.1 135.9 930 95 5 Image Chart
1987 7 28 00 22.8 134.9 925 95 5 Image Chart
1987 7 28 06 23.6 134.1 925 95 5 Image Chart
1987 7 28 12 24.5 133.4 925 100 5 Image Chart
1987 7 28 18 25.7 132.8 930 95 5 Image Chart
1987 7 29 00 26.8 132.3 940 90 5 Image Chart
1987 7 29 06 27.8 132.2 955 80 5 Image Chart
1987 7 29 12 29.1 132.4 970 80 5 Image Chart
1987 7 29 18 30.4 133.2 975 65 5 Image Chart
1987 7 30 00 31.5 134.2 980 55 4 Image Chart
1987 7 30 06 32.1 135.9 980 60 4 Image Chart
1987 7 30 12 32.4 138.0 980 60 4 Image Chart
1987 7 30 18 32.3 140.2 980 60 4 Image Chart
1987 7 31 00 32.3 143.0 980 60 4 Image Chart
1987 7 31 06 32.4 145.2 985 60 4 Image Chart
1987 7 31 12 32.6 147.6 985 55 4 Image Chart
1987 7 31 18 33.0 149.8 985 55 4 Image Chart
1987 8 1 00 33.7 151.7 990 45 3 Image Chart
1987 8 1 06 34.7 153.2 990 40 3 Image Chart
1987 8 1 12 35.7 154.3 992 40 3 Image Chart
1987 8 1 18 36.9 155.2 994 0 6 Image Chart
1987 8 2 00 38.0 156.0 994 0 6 Image Chart
1987 8 2 06 39.5 157.5 996 0 6 Image Chart
1987 8 2 12 41.0 160.0 996 0 6 Image Chart
1987 8 2 18 43.0 162.0 996 0 6 Image Chart
1987 8 3 00 45.0 165.0 996 0 6 Image Chart
1987 8 3 06 47.0 168.0 994 0 6 Image Chart
1987 8 3 12 49.0 172.0 992 0 6 Image Chart
1987 8 3 18 50.5 176.5 988 0 6 Image Chart
1987 8 4 00 52.0 181.0 986 0 6 Image Chart
Japan Meteorological Agency Best Track Data | Correction Date : 1992-10-21
< Typhoon 198706 1987 Season Typhoon 198708 >

Help